Time;durP1;ratioP1;P1;durP2;ratioP2;P2;SDS_P1;SDS_P2;PMS_P1;PMS_P2;Temp;Humidity;BMP_temperature;BMP_pressure;BME280_temperature;BME280_humidity;BME280_pressure;Samples;Min_cycle;Max_cycle;Signal;HPM_P1;HPM_P2
2021/12/14 00:01:26;;;;;;;39.47;29.90;;;;;;;;;;5021668;28;20413;-90
2021/12/14 00:03:57;;;;;;;36.88;28.33;;;;;;;;;;5022943;28;20405;-91
2021/12/14 00:06:25;;;;;;;41.72;31.23;;;;;;;;;;5013374;28;20414;-90
2021/12/14 00:08:56;;;;;;;38.90;30.13;;;;;;;;;;5016711;28;20445;-90
2021/12/14 00:11:33;;;;;;;42.72;31.15;;;;;;;;;;5021740;28;20418;-90
2021/12/14 00:14:25;;;;;;;44.88;33.35;;;;;;;;;;5014899;28;20417;-91
2021/12/14 00:16:56;;;;;;;44.17;32.72;;;;;;;;;;5012308;28;20419;-91
2021/12/14 00:19:26;;;;;;;44.08;32.53;;;;;;;;;;5008740;28;20965;-91
2021/12/14 00:21:55;;;;;;;44.08;32.33;;;;;;;;;;5007942;28;20426;-90
2021/12/14 00:24:26;;;;;;;45.03;33.03;;;;;;;;;;5011928;28;20423;-91
2021/12/14 00:26:56;;;;;;;42.80;32.63;;;;;;;;;;5018303;28;20406;-91
2021/12/14 00:29:26;;;;;;;43.47;31.80;;;;;;;;;;5015663;28;20440;-91
2021/12/14 00:31:55;;;;;;;46.03;33.45;;;;;;;;;;5010588;28;20490;-91
2021/12/14 00:34:33;;;;;;;44.53;31.75;;;;;;;;;;5023359;28;20405;-91
2021/12/14 00:37:02;;;;;;;43.75;32.08;;;;;;;;;;5009195;28;20415;-89
2021/12/14 00:39:29;;;;;;;41.70;31.63;;;;;;;;;;5015428;28;20401;-90
2021/12/14 00:41:57;;;;;;;45.25;32.13;;;;;;;;;;5013983;28;20403;-90
2021/12/14 00:44:24;;;;;;;46.67;33.43;;;;;;;;;;5013419;28;20967;-90
2021/12/14 00:46:52;;;;;;;43.63;33.25;;;;;;;;;;5010920;28;20399;-90
2021/12/14 00:49:19;;;;;;;45.55;33.05;;;;;;;;;;5015725;28;20412;-90
2021/12/14 00:51:46;;;;;;;45.63;33.63;;;;;;;;;;5021622;28;20819;-90
2021/12/14 00:54:18;;;;;;;46.47;33.42;;;;;;;;;;5023319;28;20413;-91
2021/12/14 00:56:47;;;;;;;46.72;33.65;;;;;;;;;;5023316;28;20426;-90
2021/12/14 00:59:15;;;;;;;46.38;33.53;;;;;;;;;;5016465;28;20813;-90
2021/12/14 01:01:46;;;;;;;47.77;34.00;;;;;;;;;;5014513;28;20439;-91
2021/12/14 01:04:17;;;;;;;45.40;33.38;;;;;;;;;;5020734;28;20687;-91
2021/12/14 01:06:46;;;;;;;45.95;33.95;;;;;;;;;;5022603;28;20401;-91
2021/12/14 01:09:17;;;;;;;44.20;32.55;;;;;;;;;;5020465;28;20408;-91
2021/12/14 01:11:47;;;;;;;46.08;33.58;;;;;;;;;;5023450;28;20440;-91
2021/12/14 01:14:24;;;;;;;44.13;32.47;;;;;;;;;;5022665;28;20468;-91
2021/12/14 01:17:08;;;;;;;45.55;33.78;;;;;;;;;;5023499;28;20877;-91
2021/12/14 01:19:37;;;;;;;47.67;33.10;;;;;;;;;;5009130;28;20420;-90
2021/12/14 01:22:18;;;;;;;44.35;32.83;;;;;;;;;;5015999;28;20409;-91
2021/12/14 01:27:42;;;;;;;43.45;32.22;;;;;;;;;;5008411;28;20655;-91
2021/12/14 01:30:19;;;;;;;41.67;31.92;;;;;;;;;;5022449;28;20401;-91
2021/12/14 01:32:49;;;;;;;43.08;31.88;;;;;;;;;;5019612;28;20430;-91
2021/12/14 01:35:21;;;;;;;43.58;32.83;;;;;;;;;;5019787;28;20397;-91
2021/12/14 01:38:00;;;;;;;43.72;32.60;;;;;;;;;;5019362;28;20405;-90
2021/12/14 01:43:19;;;;;;;41.15;31.30;;;;;;;;;;5013881;28;20510;-91
2021/12/14 01:45:46;;;;;;;41.90;29.97;;;;;;;;;;5013039;28;20413;-91
2021/12/14 01:48:13;;;;;;;38.00;29.05;;;;;;;;;;5020545;28;20762;-91
2021/12/14 01:50:43;;;;;;;38.55;29.15;;;;;;;;;;5008642;28;20415;-91
2021/12/14 01:53:13;;;;;;;38.15;29.08;;;;;;;;;;5018432;28;20444;-91
2021/12/14 01:55:43;;;;;;;36.65;28.10;;;;;;;;;;5018984;28;20405;-91
2021/12/14 01:58:12;;;;;;;36.73;28.50;;;;;;;;;;5023095;28;20459;-91
2021/12/14 02:00:43;;;;;;;37.00;27.50;;;;;;;;;;5009032;28;20410;-90
2021/12/14 02:03:13;;;;;;;34.35;26.65;;;;;;;;;;5019249;28;20754;-91
2021/12/14 02:05:42;;;;;;;34.03;26.05;;;;;;;;;;5018692;28;20411;-91
2021/12/14 02:08:16;;;;;;;34.28;25.50;;;;;;;;;;5011265;28;20438;-91
2021/12/14 02:10:45;;;;;;;31.87;25.33;;;;;;;;;;5009400;28;21149;-91
2021/12/14 02:13:12;;;;;;;32.45;24.98;;;;;;;;;;5010931;28;20429;-91
2021/12/14 02:15:43;;;;;;;31.77;24.80;;;;;;;;;;5022867;28;20405;-91
2021/12/14 02:18:14;;;;;;;32.37;23.97;;;;;;;;;;5013160;28;20410;-91
2021/12/14 02:20:46;;;;;;;29.80;23.63;;;;;;;;;;5013117;28;20399;-91
2021/12/14 02:23:13;;;;;;;30.65;23.50;;;;;;;;;;5014588;28;20398;-90
2021/12/14 02:25:40;;;;;;;31.92;23.15;;;;;;;;;;5012204;28;20883;-91
2021/12/14 02:28:11;;;;;;;28.57;22.03;;;;;;;;;;5014556;28;20399;-91
2021/12/14 02:30:40;;;;;;;29.30;22.98;;;;;;;;;;5020742;28;20436;-90
2021/12/14 02:33:13;;;;;;;29.38;22.40;;;;;;;;;;5023435;28;20424;-90
2021/12/14 02:35:40;;;;;;;30.52;23.13;;;;;;;;;;5025613;28;20410;-91
2021/12/14 02:38:12;;;;;;;30.42;22.42;;;;;;;;;;5017497;28;20417;-91
2021/12/14 02:40:54;;;;;;;26.73;21.55;;;;;;;;;;5023380;28;20501;-91
2021/12/14 02:43:25;;;;;;;28.45;21.42;;;;;;;;;;5003989;28;20466;-91
2021/12/14 02:45:54;;;;;;;29.17;21.23;;;;;;;;;;5022652;28;20407;-91
2021/12/14 02:48:25;;;;;;;27.75;20.77;;;;;;;;;;5037998;28;20403;-91
2021/12/14 02:50:52;;;;;;;27.77;20.63;;;;;;;;;;5042657;28;20459;-90
2021/12/14 02:53:21;;;;;;;29.08;20.83;;;;;;;;;;5024566;28;20415;-91
2021/12/14 02:55:48;;;;;;;29.65;21.77;;;;;;;;;;5023550;28;20411;-90
2021/12/14 02:58:14;;;;;;;27.48;21.55;;;;;;;;;;5012922;28;20417;-90
2021/12/14 03:00:44;;;;;;;27.75;22.08;;;;;;;;;;5016400;28;20475;-90
2021/12/14 03:03:12;;;;;;;26.98;21.27;;;;;;;;;;5020055;28;20403;-91
2021/12/14 03:05:43;;;;;;;28.55;21.58;;;;;;;;;;5018978;28;20405;-90
2021/12/14 03:08:15;;;;;;;28.27;20.80;;;;;;;;;;5017716;28;20411;-90
2021/12/14 03:10:55;;;;;;;28.35;20.95;;;;;;;;;;5019820;28;20422;-90
2021/12/14 03:13:23;;;;;;;27.00;21.08;;;;;;;;;;5016601;28;20427;-89
2021/12/14 03:15:56;;;;;;;25.92;20.67;;;;;;;;;;5020787;28;20547;-90
2021/12/14 03:18:25;;;;;;;27.65;20.90;;;;;;;;;;5017116;28;20404;-90
2021/12/14 03:20:58;;;;;;;27.08;20.60;;;;;;;;;;5016942;28;20407;-90
2021/12/14 03:23:29;;;;;;;27.38;21.02;;;;;;;;;;5017885;28;20401;-90
2021/12/14 03:26:00;;;;;;;27.30;20.40;;;;;;;;;;5015791;28;20883;-89
2021/12/14 03:28:30;;;;;;;26.85;20.23;;;;;;;;;;5020152;28;20496;-90
2021/12/14 03:31:06;;;;;;;26.00;19.75;;;;;;;;;;5020162;28;20403;-89
2021/12/14 03:33:36;;;;;;;25.38;19.58;;;;;;;;;;5018517;28;20422;-88
2021/12/14 03:36:07;;;;;;;25.02;19.83;;;;;;;;;;5017603;28;20876;-91
2021/12/14 03:38:37;;;;;;;26.67;19.85;;;;;;;;;;5017754;28;20401;-91
2021/12/14 03:41:10;;;;;;;25.77;20.03;;;;;;;;;;5015905;28;20770;-91
2021/12/14 03:43:39;;;;;;;25.85;19.77;;;;;;;;;;5016164;28;20413;-90
2021/12/14 03:46:07;;;;;;;25.17;19.98;;;;;;;;;;5019983;28;20880;-91
2021/12/14 03:48:35;;;;;;;26.17;19.10;;;;;;;;;;5015452;28;20469;-91
2021/12/14 03:51:03;;;;;;;26.48;19.30;;;;;;;;;;5018979;28;20758;-91
2021/12/14 03:53:30;;;;;;;24.77;19.50;;;;;;;;;;5016769;28;20887;-91
2021/12/14 03:56:00;;;;;;;24.67;19.80;;;;;;;;;;5023692;28;20407;-91
2021/12/14 03:58:35;;;;;;;24.48;19.75;;;;;;;;;;5015701;28;20407;-90
2021/12/14 04:01:07;;;;;;;28.35;20.67;;;;;;;;;;5019746;28;20477;-91
2021/12/14 04:03:34;;;;;;;25.85;19.45;;;;;;;;;;5018489;28;20402;-90
2021/12/14 04:06:02;;;;;;;25.27;20.03;;;;;;;;;;5017508;28;20718;-91
2021/12/14 04:08:31;;;;;;;25.77;19.92;;;;;;;;;;5018056;28;20472;-90
2021/12/14 04:11:02;;;;;;;27.27;20.55;;;;;;;;;;5020722;28;20405;-90
2021/12/14 04:13:33;;;;;;;25.73;19.33;;;;;;;;;;5015906;28;20441;-90
2021/12/14 04:16:01;;;;;;;24.70;19.30;;;;;;;;;;5018864;28;20423;-90
2021/12/14 04:18:29;;;;;;;23.77;18.52;;;;;;;;;;5018994;28;20684;-90
2021/12/14 04:20:58;;;;;;;23.65;18.63;;;;;;;;;;5016332;28;20765;-90
2021/12/14 04:23:27;;;;;;;25.45;19.48;;;;;;;;;;5019284;28;20490;-90
2021/12/14 04:25:57;;;;;;;25.98;19.50;;;;;;;;;;5019462;28;20405;-90
2021/12/14 04:28:30;;;;;;;25.15;18.85;;;;;;;;;;5016327;28;20411;-90
2021/12/14 04:30:59;;;;;;;25.77;19.27;;;;;;;;;;5018207;28;20739;-90
2021/12/14 04:33:31;;;;;;;25.63;19.03;;;;;;;;;;5018019;28;20409;-90
2021/12/14 04:35:59;;;;;;;24.60;18.98;;;;;;;;;;5016492;28;20413;-91
2021/12/14 04:38:30;;;;;;;24.30;18.98;;;;;;;;;;5018966;28;20409;-90
2021/12/14 04:52:06;;;;;;;25.00;18.57;;;;;;;;;;5019833;28;20796;-90
2021/12/14 04:54:40;;;;;;;24.43;18.10;;;;;;;;;;5016040;28;20471;-90
2021/12/14 04:57:19;;;;;;;24.63;18.30;;;;;;;;;;5017691;28;20869;-90
2021/12/14 04:59:46;;;;;;;24.48;18.35;;;;;;;;;;5020554;28;20430;-88
2021/12/14 05:02:17;;;;;;;24.40;18.13;;;;;;;;;;5013244;28;20408;-91
2021/12/14 05:04:44;;;;;;;25.90;19.38;;;;;;;;;;5013307;28;20429;-91
2021/12/14 05:09:54;;;;;;;26.60;18.98;;;;;;;;;;5013174;28;20415;-91
2021/12/14 05:12:23;;;;;;;26.20;19.63;;;;;;;;;;5011277;28;20413;-90
2021/12/14 05:14:50;;;;;;;27.20;19.65;;;;;;;;;;5024505;28;21211;-91
2021/12/14 05:17:23;;;;;;;25.77;19.52;;;;;;;;;;5022916;28;20407;-91
2021/12/14 05:19:51;;;;;;;22.37;18.07;;;;;;;;;;5012022;28;20936;-90
2021/12/14 05:22:22;;;;;;;25.00;18.90;;;;;;;;;;5011638;28;20500;-91
2021/12/14 05:24:52;;;;;;;25.25;18.50;;;;;;;;;;5013340;28;20415;-90
2021/12/14 05:27:26;;;;;;;25.20;18.27;;;;;;;;;;5011287;28;20436;-90
2021/12/14 05:29:53;;;;;;;22.63;17.93;;;;;;;;;;5015916;28;20415;-91
2021/12/14 05:32:22;;;;;;;23.37;16.90;;;;;;;;;;5027815;28;20496;-90
2021/12/14 05:34:50;;;;;;;22.88;18.10;;;;;;;;;;5022330;28;20436;-90
2021/12/14 05:37:19;;;;;;;22.45;17.52;;;;;;;;;;5023212;28;20900;-91
2021/12/14 05:39:53;;;;;;;24.40;17.27;;;;;;;;;;5027271;28;20413;-90
2021/12/14 05:45:10;;;;;;;23.70;17.10;;;;;;;;;;5035906;28;20409;-91
2021/12/14 05:47:44;;;;;;;22.10;16.90;;;;;;;;;;5027158;28;20397;-91
2021/12/14 05:50:15;;;;;;;24.30;17.30;;;;;;;;;;5023863;28;20409;-90
2021/12/14 05:52:42;;;;;;;21.15;17.20;;;;;;;;;;5015361;28;20978;-90
2021/12/14 05:55:11;;;;;;;20.57;16.77;;;;;;;;;;5024200;28;20425;-90
2021/12/14 05:57:39;;;;;;;22.00;16.50;;;;;;;;;;5025608;28;20440;-90
2021/12/14 06:00:10;;;;;;;22.73;17.90;;;;;;;;;;5022433;28;20889;-91
2021/12/14 06:02:38;;;;;;;22.70;17.13;;;;;;;;;;5015558;28;20454;-91
2021/12/14 06:05:13;;;;;;;22.70;17.85;;;;;;;;;;5016189;28;20414;-90
2021/12/14 06:07:40;;;;;;;21.92;17.50;;;;;;;;;;5022079;28;20404;-91
2021/12/14 06:10:08;;;;;;;21.87;17.00;;;;;;;;;;5016639;28;20911;-90
2021/12/14 06:12:37;;;;;;;20.98;17.48;;;;;;;;;;5015148;28;20414;-90
2021/12/14 06:15:09;;;;;;;20.73;16.50;;;;;;;;;;5021477;28;20437;-91
2021/12/14 06:17:39;;;;;;;22.10;17.25;;;;;;;;;;5019566;28;20405;-90
2021/12/14 06:20:10;;;;;;;23.13;17.85;;;;;;;;;;5014095;28;20411;-90
2021/12/14 06:22:39;;;;;;;21.85;16.58;;;;;;;;;;5014114;28;20522;-90
2021/12/14 06:25:09;;;;;;;24.33;17.23;;;;;;;;;;5015189;28;20426;-91
2021/12/14 06:27:36;;;;;;;26.73;17.17;;;;;;;;;;5016966;28;20401;-91
2021/12/14 06:30:07;;;;;;;25.75;17.67;;;;;;;;;;5019183;28;20474;-91
2021/12/14 06:32:37;;;;;;;23.55;17.25;;;;;;;;;;5016465;28;20801;-90
2021/12/14 06:35:10;;;;;;;24.33;16.88;;;;;;;;;;5015281;28;20510;-90
2021/12/14 06:38:22;;;;;;;25.63;16.92;;;;;;;;;;5022608;28;20406;-81
2021/12/14 06:40:54;;;;;;;24.02;17.33;;;;;;;;;;5016035;28;20473;-91
2021/12/14 06:43:25;;;;;;;22.73;16.77;;;;;;;;;;5022014;28;20411;-84
2021/12/14 06:45:56;;;;;;;24.23;16.67;;;;;;;;;;5014262;28;20604;-84
2021/12/14 06:48:28;;;;;;;22.83;17.02;;;;;;;;;;5015099;28;20678;-85
2021/12/14 06:51:01;;;;;;;25.20;17.85;;;;;;;;;;5011671;28;20907;-83
2021/12/14 06:53:29;;;;;;;24.35;17.80;;;;;;;;;;5017975;28;20906;-84
2021/12/14 06:55:58;;;;;;;24.55;17.25;;;;;;;;;;5012451;28;20427;-91
2021/12/14 06:58:28;;;;;;;23.52;17.40;;;;;;;;;;5017734;28;20447;-91
2021/12/14 07:01:03;;;;;;;23.98;17.45;;;;;;;;;;5013842;28;20872;-92
2021/12/14 07:03:53;;;;;;;27.13;17.52;;;;;;;;;;5019494;28;20420;-92
2021/12/14 07:06:28;;;;;;;26.00;17.65;;;;;;;;;;5017420;28;20405;-93
2021/12/14 07:09:05;;;;;;;25.17;17.38;;;;;;;;;;5018903;28;20410;-92
2021/12/14 07:11:32;;;;;;;24.30;17.48;;;;;;;;;;5018994;28;20402;-93
2021/12/14 07:14:00;;;;;;;27.00;18.60;;;;;;;;;;5015861;28;20790;-90
2021/12/14 07:16:31;;;;;;;31.00;19.08;;;;;;;;;;5017808;28;20426;-93
2021/12/14 07:19:02;;;;;;;29.52;20.40;;;;;;;;;;5012933;28;20455;-91
2021/12/14 07:21:50;;;;;;;27.13;19.45;;;;;;;;;;5018988;28;20933;-93
2021/12/14 07:24:34;;;;;;;25.40;18.27;;;;;;;;;;5015845;28;20401;-93
2021/12/14 07:27:20;;;;;;;22.88;17.58;;;;;;;;;;5020979;28;20414;-93
2021/12/14 07:29:49;;;;;;;24.52;18.10;;;;;;;;;;5019756;28;20419;-89
2021/12/14 07:32:37;;;;;;;25.55;18.30;;;;;;;;;;5020241;28;20411;-92
2021/12/14 07:35:28;;;;;;;29.05;20.13;;;;;;;;;;5012878;28;20773;-92
2021/12/14 07:37:59;;;;;;;27.95;20.27;;;;;;;;;;5017057;28;20922;-92
2021/12/14 07:40:35;;;;;;;25.58;19.02;;;;;;;;;;5017452;28;20414;-90
2021/12/14 07:43:10;;;;;;;29.77;20.90;;;;;;;;;;5016791;28;20413;-88
2021/12/14 07:45:38;;;;;;;31.77;21.75;;;;;;;;;;5017491;28;20884;-92
2021/12/14 07:48:05;;;;;;;31.33;21.17;;;;;;;;;;5014323;28;20405;-90
2021/12/14 07:50:41;;;;;;;29.60;21.35;;;;;;;;;;5023219;28;20421;-90
2021/12/14 07:53:10;;;;;;;29.85;21.80;;;;;;;;;;5015610;28;20410;-87
2021/12/14 07:55:41;;;;;;;30.08;22.27;;;;;;;;;;5014591;28;20777;-87
2021/12/14 07:58:08;;;;;;;30.40;21.23;;;;;;;;;;5017504;28;20473;-87
2021/12/14 08:00:40;;;;;;;31.40;21.45;;;;;;;;;;5020239;28;20409;-88
2021/12/14 08:03:08;;;;;;;30.92;22.33;;;;;;;;;;5018701;28;20414;-86
2021/12/14 08:05:41;;;;;;;30.30;21.75;;;;;;;;;;5019631;28;20421;-87
2021/12/14 08:08:17;;;;;;;36.65;24.23;;;;;;;;;;5017428;28;20793;-88
2021/12/14 08:10:49;;;;;;;30.02;21.60;;;;;;;;;;5020574;28;20893;-86
2021/12/14 08:13:19;;;;;;;29.90;21.50;;;;;;;;;;5013328;28;20419;-87
2021/12/14 08:15:50;;;;;;;28.10;20.88;;;;;;;;;;5028252;28;20425;-90
2021/12/14 08:18:21;;;;;;;26.67;19.17;;;;;;;;;;5029677;28;20419;-92
2021/12/14 08:20:53;;;;;;;28.83;19.65;;;;;;;;;;5024671;28;20393;-89
2021/12/14 08:23:27;;;;;;;27.55;19.33;;;;;;;;;;5023055;28;20462;-89
2021/12/14 08:25:59;;;;;;;45.30;22.05;;;;;;;;;;5015577;28;20815;-89
2021/12/14 08:28:26;;;;;;;34.87;20.60;;;;;;;;;;5020308;28;20405;-87
2021/12/14 08:30:57;;;;;;;32.77;20.00;;;;;;;;;;5027061;28;20780;-88
2021/12/14 08:33:28;;;;;;;27.60;18.50;;;;;;;;;;5018821;28;20407;-89
2021/12/14 08:35:57;;;;;;;32.40;18.92;;;;;;;;;;5023488;28;20431;-90
2021/12/14 08:38:27;;;;;;;36.03;18.95;;;;;;;;;;5031604;28;20434;-88
2021/12/14 08:41:00;;;;;;;30.00;19.10;;;;;;;;;;5024968;28;20433;-89
2021/12/14 08:43:33;;;;;;;26.02;17.20;;;;;;;;;;5019964;28;20407;-90
2021/12/14 08:46:04;;;;;;;25.15;17.77;;;;;;;;;;5017240;28;20423;-89
2021/12/14 08:48:34;;;;;;;24.95;18.48;;;;;;;;;;5014003;28;20401;-92
2021/12/14 08:51:12;;;;;;;26.42;17.98;;;;;;;;;;5020824;28;20401;-91
2021/12/14 08:53:44;;;;;;;27.58;19.23;;;;;;;;;;5008614;28;20411;-91
2021/12/14 08:56:15;;;;;;;25.53;19.07;;;;;;;;;;5019154;28;20427;-91
2021/12/14 08:58:43;;;;;;;25.88;20.02;;;;;;;;;;5013999;28;20423;-88
2021/12/14 09:01:17;;;;;;;25.35;18.85;;;;;;;;;;5012156;28;20406;-86
2021/12/14 09:03:49;;;;;;;27.42;18.73;;;;;;;;;;5012229;28;20407;-86
2021/12/14 09:06:21;;;;;;;21.40;16.17;;;;;;;;;;5017359;28;20419;-89
2021/12/14 09:08:52;;;;;;;21.73;16.63;;;;;;;;;;5011383;28;20410;-89
2021/12/14 09:11:23;;;;;;;20.90;16.27;;;;;;;;;;5014846;28;20421;-88
2021/12/14 09:13:51;;;;;;;20.35;16.33;;;;;;;;;;5012760;28;20466;-89
2021/12/14 09:16:21;;;;;;;21.42;16.50;;;;;;;;;;5018977;28;20455;-90
2021/12/14 09:18:52;;;;;;;23.77;17.10;;;;;;;;;;5013885;28;20895;-88
2021/12/14 09:21:21;;;;;;;21.98;17.38;;;;;;;;;;5011138;28;20407;-89
2021/12/14 09:23:57;;;;;;;21.33;16.70;;;;;;;;;;5007013;28;20418;-90
2021/12/14 09:26:27;;;;;;;23.10;17.38;;;;;;;;;;5013648;28;20438;-88
2021/12/14 09:28:55;;;;;;;21.92;17.40;;;;;;;;;;5020133;28;20420;-89
2021/12/14 09:31:25;;;;;;;22.10;16.48;;;;;;;;;;5024798;28;20415;-89
2021/12/14 09:33:57;;;;;;;19.05;14.50;;;;;;;;;;5025541;28;20420;-90
2021/12/14 09:36:24;;;;;;;20.13;15.30;;;;;;;;;;5015727;28;20510;-90
2021/12/14 09:38:56;;;;;;;20.98;15.82;;;;;;;;;;5017600;28;20410;-89
2021/12/14 09:41:28;;;;;;;22.15;14.80;;;;;;;;;;5021667;28;20885;-89
2021/12/14 09:43:57;;;;;;;17.17;13.68;;;;;;;;;;5021076;28;20413;-88
2021/12/14 09:46:24;;;;;;;19.03;14.10;;;;;;;;;;5012948;28;20976;-90
2021/12/14 09:48:55;;;;;;;19.13;14.68;;;;;;;;;;5021208;28;20465;-90
2021/12/14 09:51:31;;;;;;;20.88;14.90;;;;;;;;;;5021140;28;20415;-89
2021/12/14 09:54:02;;;;;;;21.05;16.05;;;;;;;;;;5021228;28;20924;-91
2021/12/14 09:56:33;;;;;;;23.42;16.45;;;;;;;;;;5017226;28;20791;-91
2021/12/14 09:59:05;;;;;;;22.92;16.48;;;;;;;;;;5021121;28;20413;-91
2021/12/14 10:01:36;;;;;;;24.40;16.70;;;;;;;;;;5015826;28;20403;-90
2021/12/14 10:04:07;;;;;;;21.80;16.63;;;;;;;;;;5017203;28;20703;-92
2021/12/14 10:06:36;;;;;;;20.80;17.00;;;;;;;;;;5019161;28;20883;-87
2021/12/14 10:09:07;;;;;;;22.35;17.85;;;;;;;;;;5020272;28;20413;-87
2021/12/14 10:11:43;;;;;;;23.85;18.23;;;;;;;;;;5018492;28;20410;-90
2021/12/14 10:14:12;;;;;;;25.58;17.48;;;;;;;;;;5021344;28;20512;-91
2021/12/14 10:16:39;;;;;;;23.60;17.60;;;;;;;;;;5015068;28;20417;-90
2021/12/14 10:19:09;;;;;;;22.40;17.83;;;;;;;;;;5014909;28;20818;-89
2021/12/14 10:21:38;;;;;;;25.88;18.60;;;;;;;;;;5018781;28;20821;-88
2021/12/14 10:24:09;;;;;;;26.03;17.87;;;;;;;;;;5019224;28;20491;-90
2021/12/14 10:26:39;;;;;;;24.20;19.05;;;;;;;;;;5011891;28;20411;-90
2021/12/14 10:29:06;;;;;;;24.80;19.27;;;;;;;;;;5018949;28;20409;-90
2021/12/14 10:31:39;;;;;;;26.65;19.38;;;;;;;;;;5015071;28;20925;-90
2021/12/14 10:34:09;;;;;;;28.33;19.63;;;;;;;;;;5018902;28;21137;-90
2021/12/14 10:36:40;;;;;;;25.02;19.52;;;;;;;;;;5014622;28;20485;-89
2021/12/14 10:39:23;;;;;;;24.38;18.45;;;;;;;;;;5019111;28;20402;-88
2021/12/14 10:44:42;;;;;;;23.70;18.20;;;;;;;;;;5022614;28;20424;-90
2021/12/14 10:47:11;;;;;;;23.27;18.20;;;;;;;;;;5016962;28;20426;-90
2021/12/14 10:49:38;;;;;;;22.25;17.83;;;;;;;;;;5018044;28;20455;-92
2021/12/14 10:52:14;;;;;;;22.95;17.85;;;;;;;;;;5017114;28;20411;-90
2021/12/14 10:54:43;;;;;;;26.30;18.52;;;;;;;;;;5019927;28;20409;-91
2021/12/14 10:57:14;;;;;;;23.63;18.80;;;;;;;;;;5013533;28;20413;-89
2021/12/14 10:59:48;;;;;;;22.88;18.40;;;;;;;;;;5014849;28;20902;-90
2021/12/14 11:02:20;;;;;;;23.08;18.02;;;;;;;;;;5022535;28;20401;-88
2021/12/14 11:04:54;;;;;;;23.27;18.52;;;;;;;;;;5016732;28;21169;-89
2021/12/14 11:07:25;;;;;;;23.48;17.67;;;;;;;;;;5017380;28;20419;-88
2021/12/14 11:09:55;;;;;;;21.00;17.05;;;;;;;;;;5016736;28;20415;-90
2021/12/14 11:12:25;;;;;;;20.45;16.77;;;;;;;;;;5021708;28;21070;-90
2021/12/14 11:14:57;;;;;;;21.13;17.10;;;;;;;;;;5016698;28;20418;-89
2021/12/14 11:20:16;;;;;;;25.37;18.40;;;;;;;;;;5014523;28;20598;-91
2021/12/14 11:22:48;;;;;;;22.45;17.40;;;;;;;;;;5017062;28;20913;-90
2021/12/14 11:25:20;;;;;;;22.27;17.80;;;;;;;;;;5026730;28;20394;-90
2021/12/14 11:27:50;;;;;;;23.13;18.63;;;;;;;;;;5011093;28;20427;-91
2021/12/14 11:30:25;;;;;;;23.23;16.90;;;;;;;;;;5023460;28;20451;-91
2021/12/14 11:33:05;;;;;;;22.15;17.90;;;;;;;;;;5022961;28;20999;-90
2021/12/14 11:35:34;;;;;;;22.57;17.90;;;;;;;;;;5020338;28;20918;-90
2021/12/14 11:38:07;;;;;;;22.95;17.50;;;;;;;;;;5011686;28;20419;-90
2021/12/14 11:40:36;;;;;;;23.35;18.00;;;;;;;;;;5017357;28;20969;-89
2021/12/14 11:43:16;;;;;;;22.85;17.85;;;;;;;;;;5022088;28;20407;-91
2021/12/14 11:45:46;;;;;;;22.67;18.25;;;;;;;;;;5022225;28;20781;-89
2021/12/14 11:48:14;;;;;;;21.13;17.67;;;;;;;;;;5012192;28;20497;-90
2021/12/14 11:50:44;;;;;;;22.92;17.30;;;;;;;;;;5019707;28;20407;-88
2021/12/14 11:53:20;;;;;;;20.42;17.38;;;;;;;;;;5013546;28;20817;-90
2021/12/14 11:55:51;;;;;;;21.67;17.35;;;;;;;;;;5015183;28;20434;-77
2021/12/14 11:58:33;;;;;;;22.40;18.10;;;;;;;;;;5015835;28;20412;-89
2021/12/14 12:01:08;;;;;;;24.55;18.45;;;;;;;;;;5015740;28;20460;-90
2021/12/14 12:03:51;;;;;;;24.55;19.13;;;;;;;;;;5017861;28;20993;-90
2021/12/14 12:06:43;;;;;;;23.52;18.70;;;;;;;;;;5031702;28;20512;-89
2021/12/14 12:09:29;;;;;;;23.33;18.08;;;;;;;;;;5018614;28;20494;-90
2021/12/14 12:12:08;;;;;;;22.50;18.38;;;;;;;;;;5024019;28;20974;-92
2021/12/14 12:14:39;;;;;;;48.50;34.40;;;;;;;;;;5028155;28;20422;-90
2021/12/14 12:17:15;;;;;;;127.15;93.30;;;;;;;;;;5014441;28;20436;-89
2021/12/14 12:20:00;;;;;;;42.70;32.17;;;;;;;;;;5018995;28;20420;-88
2021/12/14 12:22:33;;;;;;;29.90;25.15;;;;;;;;;;5016241;28;20415;-90
2021/12/14 12:25:01;;;;;;;23.02;18.98;;;;;;;;;;5012835;28;21078;-90
2021/12/14 12:27:41;;;;;;;23.50;19.25;;;;;;;;;;5000177;28;20434;-90
2021/12/14 12:30:26;;;;;;;26.95;18.65;;;;;;;;;;5017641;28;20766;-90
2021/12/14 12:32:53;;;;;;;24.88;19.25;;;;;;;;;;5013211;28;20531;-91
2021/12/14 12:35:33;;;;;;;25.55;19.33;;;;;;;;;;5019174;28;20405;-90
2021/12/14 12:38:16;;;;;;;27.58;20.15;;;;;;;;;;5013164;28;20840;-90
2021/12/14 12:40:49;;;;;;;25.98;19.30;;;;;;;;;;5011080;28;20559;-90
2021/12/14 12:43:23;;;;;;;26.13;18.83;;;;;;;;;;5015515;28;20505;-89
2021/12/14 12:46:11;;;;;;;24.10;19.10;;;;;;;;;;5017506;28;20513;-89
2021/12/14 12:48:40;;;;;;;27.33;20.08;;;;;;;;;;5014798;28;20484;-91
2021/12/14 12:51:07;;;;;;;22.95;18.80;;;;;;;;;;5015674;28;20405;-89
2021/12/14 12:53:34;;;;;;;22.90;18.50;;;;;;;;;;5017126;28;20704;-90
2021/12/14 12:56:06;;;;;;;24.15;18.50;;;;;;;;;;5012982;28;20423;-89
2021/12/14 12:58:34;;;;;;;25.90;18.25;;;;;;;;;;5009983;28;20472;-90
2021/12/14 13:01:02;;;;;;;24.70;18.58;;;;;;;;;;5016212;28;21314;-90
2021/12/14 13:03:32;;;;;;;25.23;19.02;;;;;;;;;;5019723;28;20409;-89
2021/12/14 13:06:04;;;;;;;28.58;21.33;;;;;;;;;;5015395;28;20536;-90
2021/12/14 13:08:33;;;;;;;33.60;25.65;;;;;;;;;;5017551;28;20445;-91
2021/12/14 13:11:04;;;;;;;23.17;18.48;;;;;;;;;;5020393;28;20400;-90
2021/12/14 13:13:34;;;;;;;23.17;19.15;;;;;;;;;;5017721;28;20448;-90
2021/12/14 13:16:10;;;;;;;23.40;19.23;;;;;;;;;;5017500;28;20457;-88
2021/12/14 13:18:54;;;;;;;24.70;18.75;;;;;;;;;;5019394;28;20476;-87
2021/12/14 13:21:39;;;;;;;23.63;19.40;;;;;;;;;;5012889;28;20963;-90
2021/12/14 13:24:13;;;;;;;23.73;19.48;;;;;;;;;;5016731;28;21019;-88
2021/12/14 13:26:47;;;;;;;23.73;18.90;;;;;;;;;;5003630;28;20475;-93
2021/12/14 13:29:38;;;;;;;23.77;19.10;;;;;;;;;;5022636;28;20484;-91
2021/12/14 13:32:12;;;;;;;23.98;19.30;;;;;;;;;;5016788;28;20460;-90
2021/12/14 13:34:45;;;;;;;27.63;20.40;;;;;;;;;;5021506;28;20461;-90
2021/12/14 13:37:14;;;;;;;26.50;21.27;;;;;;;;;;5014780;28;20854;-90
2021/12/14 13:39:41;;;;;;;25.83;20.00;;;;;;;;;;5020075;28;20504;-90
2021/12/14 13:42:40;;;;;;;27.42;20.73;;;;;;;;;;5021743;28;20422;-90
2021/12/14 13:45:13;;;;;;;25.13;19.08;;;;;;;;;;5021920;28;20449;-90
2021/12/14 13:47:43;;;;;;;27.08;19.83;;;;;;;;;;5022298;28;20929;-91
2021/12/14 13:50:13;;;;;;;25.53;19.30;;;;;;;;;;5019111;28;20464;-89
2021/12/14 13:52:41;;;;;;;25.20;19.88;;;;;;;;;;5019793;28;20460;-90
2021/12/14 13:55:27;;;;;;;25.73;19.55;;;;;;;;;;5019699;28;20762;-90
2021/12/14 13:57:59;;;;;;;25.73;20.17;;;;;;;;;;5014500;28;20497;-90
2021/12/14 14:00:30;;;;;;;26.60;20.48;;;;;;;;;;5017927;28;20452;-89
2021/12/14 14:02:59;;;;;;;30.23;22.08;;;;;;;;;;5018794;28;21120;-89
2021/12/14 14:05:28;;;;;;;27.83;20.60;;;;;;;;;;5015474;28;20443;-90
2021/12/14 14:07:58;;;;;;;29.67;22.42;;;;;;;;;;5018295;28;20490;-90
2021/12/14 14:10:27;;;;;;;32.63;22.38;;;;;;;;;;5014561;28;20491;-89
2021/12/14 14:12:58;;;;;;;31.63;22.58;;;;;;;;;;5015175;28;20411;-92
2021/12/14 14:15:28;;;;;;;31.55;22.63;;;;;;;;;;5023766;28;20415;-91
2021/12/14 14:17:59;;;;;;;30.07;21.90;;;;;;;;;;5022645;28;20456;-91
2021/12/14 14:20:33;;;;;;;27.27;21.42;;;;;;;;;;5022554;28;20422;-88
2021/12/14 14:23:16;;;;;;;28.83;23.02;;;;;;;;;;5016960;28;20462;-88
2021/12/14 14:25:51;;;;;;;28.55;22.58;;;;;;;;;;5021669;28;20998;-90
2021/12/14 14:28:36;;;;;;;29.67;22.85;;;;;;;;;;5018554;28;20811;-89
2021/12/14 14:31:06;;;;;;;26.23;22.30;;;;;;;;;;5019364;28;20465;-87
2021/12/14 14:33:49;;;;;;;29.63;23.13;;;;;;;;;;5017403;28;20511;-87
2021/12/14 14:36:32;;;;;;;28.37;22.53;;;;;;;;;;5019315;28;20420;-87
2021/12/14 14:39:10;;;;;;;29.75;22.83;;;;;;;;;;5023922;28;20886;-90
2021/12/14 14:41:44;;;;;;;30.75;23.02;;;;;;;;;;5027927;28;20467;-87
2021/12/14 14:44:15;;;;;;;28.45;23.45;;;;;;;;;;5027542;28;20408;-87
2021/12/14 14:46:58;;;;;;;28.20;22.60;;;;;;;;;;5022024;28;20457;-89
2021/12/14 14:49:59;;;;;;;28.42;22.77;;;;;;;;;;5026708;28;20471;-87
2021/12/14 14:52:29;;;;;;;26.53;22.53;;;;;;;;;;5027003;28;20397;-89
2021/12/14 14:54:59;;;;;;;28.02;23.50;;;;;;;;;;5025031;28;20514;-89
2021/12/14 14:57:38;;;;;;;27.00;22.73;;;;;;;;;;5024822;28;20452;-88
2021/12/14 15:00:40;;;;;;;29.07;23.57;;;;;;;;;;5020433;28;20436;-89
2021/12/14 15:03:14;;;;;;;28.65;23.17;;;;;;;;;;5018476;28;20409;-87
2021/12/14 15:05:47;;;;;;;27.42;22.58;;;;;;;;;;5019323;28;20467;-87
2021/12/14 15:08:22;;;;;;;29.45;22.55;;;;;;;;;;5018218;28;20440;-90
2021/12/14 15:10:54;;;;;;;28.00;23.05;;;;;;;;;;5014420;28;20450;-88
2021/12/14 15:13:30;;;;;;;28.67;22.27;;;;;;;;;;5020941;28;20434;-87